Latest Coastal Weather Observations for Hogan Island

IDV60701

Issued at 8:01 am EST Saturday 4 July 2015 (issued every 10 minutes, with the page automatically refreshed every 10 minutes)

About coastal observations | Map of coastal stations | Coastal observations for VIC | Marine services | Other Formats
Station Details ID: 200838 Name: HOGAN ISLAND Lat: -39.22 Lon: 146.98 Height: 116.0 m
Data from the previous 72 hours. | See also: Recent months at Hogan Island
Date/Time
EST
Temp

°C
Wind Pressure Rain
since 9am
mm
Weather Cloud Vis
km
Sea
Height
m
Swell
Dir
 
Speed
knots
Gust
knots
hPa Trend Height
m
Period
s
Dir
04/08:00am 9.4 WNW 28 31 1018.0 - 0.2 - - - - - - -
04/07:30am 9.4 WNW 30 33 1018.1 - 0.2 - - - - - - -
04/07:00am 9.1 WNW 33 38 1017.9 - 0.2 - - - - - - -
04/06:30am 9.1 WNW 30 35 1017.9 - 0.2 - - - - - - -
04/06:00am 9.3 WNW 30 33 1017.9 - 0.2 - - - - - - -
04/05:30am 9.4 WNW 30 36 1017.7 - 0.2 - - - - - - -
04/05:00am 9.5 WNW 30 35 1017.8 - 0.2 - - - - - - -
04/04:30am 9.0 WNW 32 37 1017.8 - 0.2 - - - - - - -
04/04:00am 9.0 WNW 31 36 1018.1 - 0.2 - - - - - - -
04/03:30am 8.9 WNW 32 37 1018.4 - 0.2 - - - - - - -
04/03:00am 9.0 WNW 32 38 1018.7 - 0.2 - - - - - - -
04/02:30am 9.2 WNW 34 39 1018.9 - 0.2 - - - - - - -
04/02:00am 9.1 WNW 32 37 1019.1 - 0.2 - - - - - - -
04/01:30am 9.1 WNW 31 35 1019.3 - 0.2 - - - - - - -
04/01:00am 9.2 WNW 30 34 1019.7 - 0.2 - - - - - - -
04/12:30am 9.2 WNW 31 35 1020.1 - 0.2 - - - - - - -
04/12:00am 9.1 WNW 32 35 1020.6 - 0.2 - - - - - - -
 
Date/Time
EST
Temp

°C
Wind Pressure Rain
since 9am
mm
Weather Cloud Vis
km
Sea
Height
m
Swell
Dir
 
Speed
knots
Gust
knots
hPa Trend Height
m
Period
s
Dir
03/11:30pm 9.0 WNW 32 37 1020.6 - 0.2 - - - - - - -
03/11:00pm 9.1 WNW 34 38 1020.7 - 0.2 - - - - - - -
03/10:30pm 9.1 WNW 33 38 1021.0 - 0.2 - - - - - - -
03/10:00pm 9.0 WNW 33 38 1021.4 - 0.2 - - - - - - -
03/09:30pm 9.0 WNW 32 36 1021.6 - 0.2 - - - - - - -
03/09:00pm 9.0 WNW 31 35 1021.9 - 0.2 - - - - - - -
03/08:30pm 9.0 WNW 30 35 1022.0 - 0.2 - - - - - - -
03/08:00pm 9.0 WNW 32 36 1022.0 - 0.2 - - - - - - -
03/07:30pm 8.8 WNW 27 32 1022.3 - 0.2 - - - - - - -
03/07:00pm 8.8 WNW 25 30 1022.4 - 0.2 - - - - - - -
03/06:30pm 9.0 WNW 24 33 1022.3 - 0.2 - - - - - - -
03/06:00pm 8.8 WNW 25 31 1022.7 - 0.0 - - - - - - -
03/05:30pm 9.2 W 28 32 1022.4 - 0.0 - - - - - - -
03/05:00pm 8.7 W 27 32 1022.6 - 0.0 - - - - - - -
03/04:30pm 9.3 W 24 28 1022.6 - 0.0 - - - - - - -
03/04:00pm 9.3 W 24 28 1022.9 - 0.0 - - - - - - -
03/03:30pm 8.7 W 26 31 1023.1 - 0.0 - - - - - - -
03/03:00pm 8.6 W 29 37 1023.2 - 0.0 - - - - - - -
03/02:30pm 10.9 W 28 32 1022.8 - 0.0 - - - - - - -
03/02:00pm 10.7 W 22 26 1023.2 - 0.0 - - - - - - -
03/01:30pm 11.2 W 22 27 1023.4 - 0.0 - - - - - - -
03/01:00pm 9.5 W 24 28 1023.9 - 0.0 - - - - - - -
03/12:30pm 11.1 W 21 25 1024.3 - 0.0 - - - - - - -
03/12:00pm 9.2 WSW 22 27 1025.2 - 0.0 - - - - - - -
03/11:30am 8.3 W 25 30 1025.3 - 0.0 - - - - - - -
03/11:00am 9.5 W 19 22 1025.7 - 0.0 - - - - - - -
03/10:30am 8.6 W 24 27 1025.8 - 0.0 - - - - - - -
03/10:20am 9.5 W 17 28 1025.9 - 0.0 - - - - - - -
03/10:00am 10.3 WSW 16 18 1025.9 - 0.0 - - - - - - -
03/09:30am 9.4 W 19 22 1025.7 - 0.0 - - - - - - -
03/09:20am 9.4 W 20 25 1025.8 - 0.0 - - - - - - -
03/09:00am 8.9 WSW 19 23 1025.9 - 0.8 - - - - - - -
03/08:30am 9.4 WSW 18 22 1025.5 - 0.8 - - - - - - -
03/08:00am 9.2 WSW 15 19 1025.4 - 0.8 - - - - - - -
03/07:30am 9.1 WSW 20 24 1025.4 - 0.8 - - - - - - -
03/07:00am 8.7 WSW 18 22 1025.3 - 0.8 - - - - - - -
03/06:30am 8.8 WSW 20 25 1025.1 - 0.8 - - - - - - -
03/06:00am 8.8 WSW 21 26 1025.1 - 0.8 - - - - - - -
03/05:30am 8.8 SW 23 27 1024.8 - 0.8 - - - - - - -
03/05:00am 8.7 WSW 23 31 1024.6 - 0.8 - - - - - - -
03/04:30am 8.8 WSW 22 28 1024.6 - 0.8 - - - - - - -
03/04:00am 8.7 WSW 25 29 1024.6 - 0.8 - - - - - - -
03/03:30am 8.6 WSW 24 29 1024.7 - 0.8 - - - - - - -
03/03:00am 8.5 SW 25 30 1025.0 - 0.8 - - - - - - -
03/02:30am 8.6 SW 25 30 1025.1 - 0.8 - - - - - - -
03/02:00am 8.2 SW 27 33 1024.9 - 0.8 - - - - - - -
03/01:30am 8.5 WSW 28 33 1024.8 - 0.8 - - - - - - -
03/01:00am 8.5 SW 27 34 1024.6 - 0.8 - - - - - - -
03/12:30am 8.7 WSW 29 36 1024.5 - 0.8 - - - - - - -
03/12:00am 8.7 SW 29 34 1024.8 - 0.8 - - - - - - -
 
Date/Time
EST
Temp

°C
Wind Pressure Rain
since 9am
mm
Weather Cloud Vis
km
Sea
Height
m
Swell
Dir
 
Speed
knots
Gust
knots
hPa Trend Height
m
Period
s
Dir
02/11:30pm 8.7 SW 28 33 1025.0 - 0.8 - - - - - - -
02/11:00pm 9.0 SW 25 29 1025.0 - 0.8 - - - - - - -
02/10:30pm 8.9 SW 28 34 1024.7 - 0.8 - - - - - - -
02/10:00pm 8.8 SW 29 36 1024.7 - 0.8 - - - - - - -
02/09:30pm 8.9 SW 31 38 1024.4 - 0.8 - - - - - - -
02/09:00pm 8.9 WSW 30 38 1024.3 - 0.8 - - - - - - -
02/08:30pm 8.9 SW 31 36 1024.0 - 0.8 - - - - - - -
02/08:00pm 8.7 SW 29 36 1023.7 - 0.8 - - - - - - -
02/07:30pm 9.2 SW 29 35 1023.3 - 0.8 - - - - - - -
02/07:00pm 9.0 WSW 30 37 1022.8 - 0.8 - - - - - - -
02/06:30pm 9.0 SW 30 37 1022.6 - 0.8 - - - - - - -
02/06:00pm 9.1 WSW 35 42 1022.0 - 0.8 - - - - - - -
02/05:30pm 9.2 WSW 31 39 1021.5 - 0.8 - - - - - - -
02/05:00pm 9.0 WSW 34 39 1021.1 - 0.8 - - - - - - -
02/04:30pm 9.5 WSW 35 41 1020.9 - 0.8 - - - - - - -
02/04:00pm 9.9 WSW 34 40 1020.7 - 0.8 - - - - - - -
02/03:30pm 9.9 WSW 33 40 1020.1 - 0.8 - - - - - - -
02/03:00pm 10.2 WSW 36 41 1019.5 - 0.8 - - - - - - -
02/02:30pm 10.3 SW 32 37 1019.1 - 0.8 - - - - - - -
02/02:00pm 10.1 SW 34 41 1018.9 - 0.8 - - - - - - -
02/01:30pm 9.1 SW 33 39 1018.4 - 0.8 - - - - - - -
02/01:00pm 9.8 SW 32 39 1017.8 - 0.8 - - - - - - -
02/12:30pm 9.8 WSW 35 40 1017.4 - 0.8 - - - - - - -
02/12:00pm 8.2 SW 32 42 1017.4 - 0.8 - - - - - - -
02/11:36am 9.1 SW 33 44 1016.8 - 0.8 - - - - - - -
02/11:30am 9.2 SW 32 40 1016.8 - 0.8 - - - - - - -
02/11:00am 8.3 WSW 32 37 1016.2 - 0.8 - - - - - - -
02/10:30am 8.1 WSW 27 33 1016.3 - 0.8 - - - - - - -
02/10:00am 7.4 WSW 26 30 1016.3 - 0.8 - - - - - - -
02/09:30am 6.9 WSW 29 34 1015.9 - 0.6 - - - - - - -
02/09:10am 7.1 SW 37 47 1015.6 - 0.0 - - - - - - -
02/09:00am 7.0 SW 43 51 1015.5 - 5.4 - - - - - - -
02/08:48am 8.8 WSW 39 51 1014.3 - 5.2 - - - - - - -
02/08:30am 9.4 WSW 37 42 1014.0 - 5.2 - - - - - - -
02/07:56am 7.7 WSW 29 35 1014.5 - 5.2 - - - - - - -
02/07:30am 8.6 WSW 39 48 1013.8 - 5.0 - - - - - - -
02/07:02am 8.3 W 33 43 1013.8 - 4.8 - - - - - - -
02/07:00am 8.3 WSW 35 43 1013.8 - 4.8 - - - - - - -
02/06:34am 9.2 WSW 35 45 1013.3 - 4.8 - - - - - - -
02/06:30am 9.9 WSW 35 43 1013.4 - 4.8 - - - - - - -
02/06:00am 10.3 W 36 40 1013.2 - 4.8 - - - - - - -
02/05:30am 10.2 W 36 43 1013.0 - 4.8 - - - - - - -
02/05:00am 9.8 WSW 35 41 1013.1 - 4.8 - - - - - - -
02/04:30am 9.7 WSW 42 48 1013.0 - 4.8 - - - - - - -
02/04:14am 10.3 W 35 48 1012.7 - 4.8 - - - - - - -
02/04:00am 10.0 W 39 46 1012.6 - 4.8 - - - - - - -
02/03:30am 10.1 W 37 43 1012.8 - 4.6 - - - - - - -
02/03:17am 10.1 W 42 52 1012.7 - 4.6 - - - - - - -
02/03:00am 10.4 W 40 48 1012.7 - 4.4 - - - - - - -
02/02:54am 10.5 W 36 47 1012.8 - 4.4 - - - - - - -
02/02:30am 10.6 W 38 46 1012.5 - 3.6 - - - - - - -
02/02:00am 9.8 W 40 47 1012.5 - 3.4 - - - - - - -
02/01:30am 10.2 W 45 52 1012.0 - 3.0 - - - - - - -
02/01:14am 10.0 W 49 59 1012.4 - 2.4 - - - - - - -
02/01:10am 9.6 W 51 59 1012.3 - 2.2 - - - - - - -
02/01:06am 10.6 WNW 39 49 1012.6 - 1.4 - - - - - - -
02/01:00am 11.4 WNW 37 44 1012.8 - 1.2 - - - - - - -
02/12:30am 11.2 NW 36 47 1013.1 - 1.2 - - - - - - -
02/12:27am 11.2 NW 37 48 1013.1 - 1.2 - - - - - - -
02/12:23am 11.3 WNW 39 51 1012.9 - 1.2 - - - - - - -
02/12:00am 11.3 WNW 50 57 1012.3 - 1.2 - - - - - - -
 
Date/Time
EST
Temp

°C
Wind Pressure Rain
since 9am
mm
Weather Cloud Vis
km
Sea
Height
m
Swell
Dir
 
Speed
knots
Gust
knots
hPa Trend Height
m
Period
s
Dir
01/11:30pm 11.3 WNW 45 51 1013.0 - 1.2 - - - - - - -
01/11:00pm 11.4 WNW 39 48 1014.3 - 1.2 - - - - - - -
01/10:54pm 11.2 WNW 38 48 1014.2 - 1.2 - - - - - - -
01/10:30pm 11.2 WNW 36 43 1014.7 - 1.2 - - - - - - -
01/10:23pm 11.2 NW 36 46 1014.7 - 1.2 - - - - - - -
01/10:00pm 11.1 WNW 39 47 1014.8 - 1.2 - - - - - - -
01/09:30pm 11.2 WNW 40 47 1015.2 - 1.2 - - - - - - -
01/09:00pm 11.2 WNW 39 46 1016.0 - 1.2 - - - - - - -
01/08:30pm 11.2 NW 33 42 1016.4 - 1.2 - - - - - - -
01/08:00pm 11.0 WNW 35 41 1016.8 - 1.2 - - - - - - -
01/07:30pm 11.1 WNW 34 42 1017.2 - 1.2 - - - - - - -
01/07:00pm 11.4 WNW 36 41 1017.5 - 1.2 - - - - - - -
01/06:30pm 11.4 WNW 37 43 1017.6 - 1.2 - - - - - - -
01/06:00pm 11.3 WNW 34 39 1018.1 - 1.2 - - - - - - -
01/05:30pm 11.5 WNW 33 37 1018.2 - 1.2 - - - - - - -
01/05:00pm 11.5 WNW 31 36 1018.6 - 1.2 - - - - - - -
01/04:30pm 11.5 WNW 33 37 1018.7 - 1.2 - - - - - - -
01/04:00pm 11.8 WNW 30 35 1019.3 - 1.2 - - - - - - -
01/03:30pm 11.9 WNW 33 37 1019.5 - 1.2 - - - - - - -
01/03:00pm 11.4 WNW 31 37 1019.8 - 1.2 - - - - - - -
01/02:30pm 11.6 WNW 31 34 1020.0 - 1.2 - - - - - - -
01/02:00pm 11.5 WNW 29 34 1020.4 - 1.2 - - - - - - -
01/01:30pm 11.9 WNW 28 33 1020.9 - 1.2 - - - - - - -
01/01:00pm 11.2 WNW 29 33 1021.5 - 1.2 - - - - - - -
01/12:30pm 11.1 WNW 30 34 1021.8 - 1.2 - - - - - - -
01/12:00pm 10.6 WNW 32 37 1022.2 - 1.2 - - - - - - -
01/11:30am 11.1 WNW 31 35 1022.8 - 1.2 - - - - - - -
01/11:00am 10.5 WNW 25 29 1023.7 - 1.2 - - - - - - -
01/10:30am 10.2 WNW 19 23 1024.3 - 1.2 - - - - - - -
01/10:00am 10.0 WNW 19 22 1024.7 - 1.0 - - - - - - -
01/09:37am 10.0 WNW 21 24 1024.7 - 0.0 - - - - - - -
01/09:30am 11.2 W 18 20 1024.8 - 0.0 - - - - - - -
01/09:00am 10.8 W 15 17 1025.1 - 0.0 - - - - - - -
01/08:30am 9.8 W 22 28 1024.9 - 0.0 - - - - - - -

Other Formats:

Comma delimited format used in spreadsheet applications
http://www.bom.gov.au/fwo/IDV60701/IDV60701.94949.axf

JavaScript Object Notation format (JSON) in row-major order
http://www.bom.gov.au/fwo/IDV60701/IDV60701.94949.json